Aérodrome :
LOGIN :

S'inscrire | Disclaimer

   EN    FR    IT 

 










Légende :    VFR   VFR Marginal   IFR   IFR Intensif   IFR Très Intensif
Visi : 
Plafond : 
>= 8 km
>= 3000ft
5 à 8 km
1000 à 3000 ft
1500m à 5 km
500 à 1000 ft
800 à 1500m
200 à 500 ft
< 800m
< 200 ft
Symboles :   Orages  Brouillard  Fortes neiges  Fortes précipitations  Vent > 20 kt
SIGMETs :   Divers  Orages  Givrage  Turbulence  Onde Orograph.  Cendres Volcan.






- Altitude de l'aérodrome : 16 ft
- Code IATA : SDR


LEXJ - Santander Cantabria

DERNIER METAR :
  • 021000Z 04007KT 360V070 9999 SCT020 SCT055 14/11 Q1016

METARs EXPIRÉS :
  • 020930Z 04005KT 360V070 9999 FEW022 SCT055 14/11 Q1016
  • 020900Z 04006KT 010V080 9999 FEW015 SCT050 13/11 Q1016
  • 020830Z 03005KT 350V070 9999 SCT010 BKN022 13/12 Q1015
  • 020800Z VRB02KT 9999 SCT010 SCT015 13/12 Q1015
  • 020730Z 25003KT 220V290 9999 SCT010 SCT025 12/12 Q1015

TAF TAF LEXJ
Valide du 02 à 09h jusqu'au 03 à 09h UTC


020800Z 0209/0309 VRB05KT 8000 SCT030 TX15/0215Z TN06/0300Z
PROB30
TEMPO 0209/0212 4000 RA SHRA SCT030TCU
PROB40
TEMPO 0211/0219 03010KT



MET'MAP, la Météo Aéronautique d'un coup d'oeil ! - Copyright ORBIFLY Décembre 2007 - Disclaimer

ORBIFLY MET'MAP TEAM :

Programmation & Développement : Alexandra Zaïnal
Sur une idée originale de : Baudouin d'Aumeries
Assistance à la programmation : Marc-Olivier Méhu
Soutien technique & logistique : Manuel Goepfert

Contact : metmap@orbifly.com




SOURCES & CREDITS :

   NOAA